sensor_id;sensor_type;location;lat;lon;timestamp;P1;durP1;ratioP1;P2;durP2;ratioP2
35679;SDS011;21803;53.586;10.040;2024-03-29T00:02:22;8.52;;;1.33;;
35679;SDS011;21803;53.586;10.040;2024-03-29T00:04:48;2.75;;;1.08;;
35679;SDS011;21803;53.586;10.040;2024-03-29T00:07:13;10.25;;;1.55;;
35679;SDS011;21803;53.586;10.040;2024-03-29T00:09:39;5.90;;;1.20;;
35679;SDS011;21803;53.586;10.040;2024-03-29T00:12:04;4.82;;;1.40;;
35679;SDS011;21803;53.586;10.040;2024-03-29T00:14:31;7.03;;;1.38;;
35679;SDS011;21803;53.586;10.040;2024-03-29T00:16:56;7.78;;;1.40;;
35679;SDS011;21803;53.586;10.040;2024-03-29T00:19:22;4.80;;;0.88;;
35679;SDS011;21803;53.586;10.040;2024-03-29T00:21:48;10.50;;;1.60;;
35679;SDS011;21803;53.586;10.040;2024-03-29T00:24:14;7.60;;;1.20;;
35679;SDS011;21803;53.586;10.040;2024-03-29T00:26:39;10.60;;;1.25;;
35679;SDS011;21803;53.586;10.040;2024-03-29T00:29:05;12.35;;;1.30;;
35679;SDS011;21803;53.586;10.040;2024-03-29T00:31:30;9.20;;;1.40;;
35679;SDS011;21803;53.586;10.040;2024-03-29T00:33:56;12.77;;;1.75;;
35679;SDS011;21803;53.586;10.040;2024-03-29T00:36:22;8.77;;;1.23;;
35679;SDS011;21803;53.586;10.040;2024-03-29T00:38:47;6.28;;;1.67;;
35679;SDS011;21803;53.586;10.040;2024-03-29T00:41:13;6.95;;;1.65;;
35679;SDS011;21803;53.586;10.040;2024-03-29T00:43:38;10.07;;;1.48;;
35679;SDS011;21803;53.586;10.040;2024-03-29T00:46:04;6.20;;;1.25;;
35679;SDS011;21803;53.586;10.040;2024-03-29T00:48:29;9.38;;;1.48;;
35679;SDS011;21803;53.586;10.040;2024-03-29T00:50:55;5.95;;;1.20;;
35679;SDS011;21803;53.586;10.040;2024-03-29T00:53:20;4.95;;;0.93;;
35679;SDS011;21803;53.586;10.040;2024-03-29T00:55:46;4.97;;;0.93;;
35679;SDS011;21803;53.586;10.040;2024-03-29T00:58:11;5.53;;;1.02;;
35679;SDS011;21803;53.586;10.040;2024-03-29T01:00:37;5.97;;;1.02;;
35679;SDS011;21803;53.586;10.040;2024-03-29T01:03:03;6.57;;;1.23;;
35679;SDS011;21803;53.586;10.040;2024-03-29T01:05:28;7.07;;;1.20;;
35679;SDS011;21803;53.586;10.040;2024-03-29T01:07:54;3.65;;;1.25;;
35679;SDS011;21803;53.586;10.040;2024-03-29T01:10:19;2.90;;;0.80;;
35679;SDS011;21803;53.586;10.040;2024-03-29T01:12:46;6.20;;;1.13;;
35679;SDS011;21803;53.586;10.040;2024-03-29T01:15:12;4.32;;;1.02;;
35679;SDS011;21803;53.586;10.040;2024-03-29T01:17:37;5.50;;;1.00;;
35679;SDS011;21803;53.586;10.040;2024-03-29T01:20:03;3.58;;;0.93;;
35679;SDS011;21803;53.586;10.040;2024-03-29T01:22:29;7.63;;;1.10;;
35679;SDS011;21803;53.586;10.040;2024-03-29T01:24:54;5.53;;;1.35;;
35679;SDS011;21803;53.586;10.040;2024-03-29T01:27:20;2.22;;;0.50;;
35679;SDS011;21803;53.586;10.040;2024-03-29T01:29:46;2.63;;;0.90;;
35679;SDS011;21803;53.586;10.040;2024-03-29T01:32:12;1.95;;;0.80;;
35679;SDS011;21803;53.586;10.040;2024-03-29T01:34:38;5.28;;;0.93;;
35679;SDS011;21803;53.586;10.040;2024-03-29T01:37:03;4.10;;;1.08;;
35679;SDS011;21803;53.586;10.040;2024-03-29T01:39:30;3.00;;;1.02;;
35679;SDS011;21803;53.586;10.040;2024-03-29T01:41:56;4.35;;;1.77;;
35679;SDS011;21803;53.586;10.040;2024-03-29T01:44:22;6.07;;;0.93;;
35679;SDS011;21803;53.586;10.040;2024-03-29T01:46:47;4.97;;;0.77;;
35679;SDS011;21803;53.586;10.040;2024-03-29T01:49:13;6.70;;;1.10;;
35679;SDS011;21803;53.586;10.040;2024-03-29T01:51:39;7.75;;;1.33;;
35679;SDS011;21803;53.586;10.040;2024-03-29T01:54:05;3.83;;;1.10;;
35679;SDS011;21803;53.586;10.040;2024-03-29T01:56:34;3.90;;;0.93;;
35679;SDS011;21803;53.586;10.040;2024-03-29T01:59:00;3.00;;;0.70;;
35679;SDS011;21803;53.586;10.040;2024-03-29T02:01:29;6.75;;;1.17;;
35679;SDS011;21803;53.586;10.040;2024-03-29T02:03:55;5.40;;;1.30;;
35679;SDS011;21803;53.586;10.040;2024-03-29T02:06:21;5.00;;;1.30;;
35679;SDS011;21803;53.586;10.040;2024-03-29T02:08:49;11.50;;;1.13;;
35679;SDS011;21803;53.586;10.040;2024-03-29T02:11:18;4.07;;;0.95;;
35679;SDS011;21803;53.586;10.040;2024-03-29T02:13:43;2.97;;;0.95;;
35679;SDS011;21803;53.586;10.040;2024-03-29T02:16:09;5.20;;;1.35;;
35679;SDS011;21803;53.586;10.040;2024-03-29T02:18:35;5.10;;;1.00;;
35679;SDS011;21803;53.586;10.040;2024-03-29T02:21:00;4.82;;;1.13;;
35679;SDS011;21803;53.586;10.040;2024-03-29T02:23:26;4.00;;;0.80;;
35679;SDS011;21803;53.586;10.040;2024-03-29T02:25:53;8.35;;;1.58;;
35679;SDS011;21803;53.586;10.040;2024-03-29T02:28:19;7.07;;;1.20;;
35679;SDS011;21803;53.586;10.040;2024-03-29T02:30:46;7.95;;;1.10;;
35679;SDS011;21803;53.586;10.040;2024-03-29T02:33:12;6.53;;;1.38;;
35679;SDS011;21803;53.586;10.040;2024-03-29T02:35:38;7.22;;;1.70;;
35679;SDS011;21803;53.586;10.040;2024-03-29T02:38:03;3.95;;;0.90;;
35679;SDS011;21803;53.586;10.040;2024-03-29T02:40:29;5.47;;;1.20;;
35679;SDS011;21803;53.586;10.040;2024-03-29T02:42:54;5.07;;;1.20;;
35679;SDS011;21803;53.586;10.040;2024-03-29T02:45:20;4.32;;;1.20;;
35679;SDS011;21803;53.586;10.040;2024-03-29T02:47:45;6.20;;;1.20;;
35679;SDS011;21803;53.586;10.040;2024-03-29T02:50:12;5.57;;;1.83;;
35679;SDS011;21803;53.586;10.040;2024-03-29T02:52:39;3.28;;;0.98;;
35679;SDS011;21803;53.586;10.040;2024-03-29T02:55:04;2.95;;;0.80;;
35679;SDS011;21803;53.586;10.040;2024-03-29T02:57:30;7.65;;;1.13;;
35679;SDS011;21803;53.586;10.040;2024-03-29T02:59:55;4.65;;;0.77;;
35679;SDS011;21803;53.586;10.040;2024-03-29T03:02:21;7.65;;;1.60;;
35679;SDS011;21803;53.586;10.040;2024-03-29T03:04:47;6.82;;;1.00;;
35679;SDS011;21803;53.586;10.040;2024-03-29T03:07:12;4.35;;;0.95;;
35679;SDS011;21803;53.586;10.040;2024-03-29T03:09:56;3.63;;;1.13;;
35679;SDS011;21803;53.586;10.040;2024-03-29T03:12:40;2.03;;;0.95;;
35679;SDS011;21803;53.586;10.040;2024-03-29T03:15:06;3.20;;;0.90;;
35679;SDS011;21803;53.586;10.040;2024-03-29T03:17:32;5.10;;;0.98;;
35679;SDS011;21803;53.586;10.040;2024-03-29T03:19:57;3.30;;;1.02;;
35679;SDS011;21803;53.586;10.040;2024-03-29T03:22:23;3.13;;;0.80;;
35679;SDS011;21803;53.586;10.040;2024-03-29T03:24:49;4.60;;;0.82;;
35679;SDS011;21803;53.586;10.040;2024-03-29T03:27:15;2.83;;;0.98;;
35679;SDS011;21803;53.586;10.040;2024-03-29T03:29:40;6.38;;;0.93;;
35679;SDS011;21803;53.586;10.040;2024-03-29T03:32:06;1.15;;;0.65;;
35679;SDS011;21803;53.586;10.040;2024-03-29T03:34:31;3.72;;;0.95;;
35679;SDS011;21803;53.586;10.040;2024-03-29T03:36:57;2.20;;;0.57;;
35679;SDS011;21803;53.586;10.040;2024-03-29T03:39:23;5.22;;;0.80;;
35679;SDS011;21803;53.586;10.040;2024-03-29T03:41:48;6.72;;;1.30;;
35679;SDS011;21803;53.586;10.040;2024-03-29T03:44:15;8.07;;;1.15;;
35679;SDS011;21803;53.586;10.040;2024-03-29T03:46:40;5.18;;;1.50;;
35679;SDS011;21803;53.586;10.040;2024-03-29T03:49:06;4.35;;;1.55;;
35679;SDS011;21803;53.586;10.040;2024-03-29T03:51:31;9.30;;;1.15;;
35679;SDS011;21803;53.586;10.040;2024-03-29T03:53:57;7.32;;;1.35;;
35679;SDS011;21803;53.586;10.040;2024-03-29T03:56:22;4.55;;;1.10;;
35679;SDS011;21803;53.586;10.040;2024-03-29T03:58:48;2.50;;;0.82;;
35679;SDS011;21803;53.586;10.040;2024-03-29T04:01:13;4.20;;;0.98;;
35679;SDS011;21803;53.586;10.040;2024-03-29T04:03:39;6.75;;;1.20;;
35679;SDS011;21803;53.586;10.040;2024-03-29T04:06:05;6.50;;;1.50;;
35679;SDS011;21803;53.586;10.040;2024-03-29T04:08:31;1.88;;;1.05;;
35679;SDS011;21803;53.586;10.040;2024-03-29T04:10:57;2.78;;;1.10;;
35679;SDS011;21803;53.586;10.040;2024-03-29T04:13:22;7.65;;;1.00;;
35679;SDS011;21803;53.586;10.040;2024-03-29T04:15:48;3.33;;;0.90;;
35679;SDS011;21803;53.586;10.040;2024-03-29T04:18:13;3.15;;;1.00;;
35679;SDS011;21803;53.586;10.040;2024-03-29T04:20:39;2.72;;;1.15;;
35679;SDS011;21803;53.586;10.040;2024-03-29T04:23:05;3.80;;;0.90;;
35679;SDS011;21803;53.586;10.040;2024-03-29T04:25:31;1.95;;;0.90;;
35679;SDS011;21803;53.586;10.040;2024-03-29T04:27:57;2.17;;;0.65;;
35679;SDS011;21803;53.586;10.040;2024-03-29T04:30:23;2.35;;;1.15;;
35679;SDS011;21803;53.586;10.040;2024-03-29T04:32:48;6.93;;;1.13;;
35679;SDS011;21803;53.586;10.040;2024-03-29T04:35:14;5.65;;;1.33;;
35679;SDS011;21803;53.586;10.040;2024-03-29T04:37:40;4.20;;;0.80;;
35679;SDS011;21803;53.586;10.040;2024-03-29T04:40:05;3.75;;;0.95;;
35679;SDS011;21803;53.586;10.040;2024-03-29T04:42:31;5.40;;;0.88;;
35679;SDS011;21803;53.586;10.040;2024-03-29T04:44:57;2.83;;;0.88;;
35679;SDS011;21803;53.586;10.040;2024-03-29T04:47:22;5.88;;;0.90;;
35679;SDS011;21803;53.586;10.040;2024-03-29T04:49:48;3.33;;;0.63;;
35679;SDS011;21803;53.586;10.040;2024-03-29T04:52:13;3.13;;;1.10;;
35679;SDS011;21803;53.586;10.040;2024-03-29T04:54:39;7.55;;;1.45;;
35679;SDS011;21803;53.586;10.040;2024-03-29T04:57:05;1.38;;;0.77;;
35679;SDS011;21803;53.586;10.040;2024-03-29T04:59:31;3.78;;;1.10;;
35679;SDS011;21803;53.586;10.040;2024-03-29T05:01:59;5.15;;;1.35;;
35679;SDS011;21803;53.586;10.040;2024-03-29T05:04:25;5.88;;;1.17;;
35679;SDS011;21803;53.586;10.040;2024-03-29T05:06:57;5.35;;;1.27;;
35679;SDS011;21803;53.586;10.040;2024-03-29T05:09:24;9.27;;;1.27;;
35679;SDS011;21803;53.586;10.040;2024-03-29T05:11:50;5.35;;;1.20;;
35679;SDS011;21803;53.586;10.040;2024-03-29T05:14:16;9.02;;;1.00;;
35679;SDS011;21803;53.586;10.040;2024-03-29T05:16:43;3.35;;;1.00;;
35679;SDS011;21803;53.586;10.040;2024-03-29T05:19:13;4.22;;;1.50;;
35679;SDS011;21803;53.586;10.040;2024-03-29T05:21:39;5.70;;;1.10;;
35679;SDS011;21803;53.586;10.040;2024-03-29T05:24:05;6.40;;;1.20;;
35679;SDS011;21803;53.586;10.040;2024-03-29T05:26:31;6.53;;;1.10;;
35679;SDS011;21803;53.586;10.040;2024-03-29T05:28:56;9.60;;;1.42;;
35679;SDS011;21803;53.586;10.040;2024-03-29T05:31:23;5.85;;;1.00;;
35679;SDS011;21803;53.586;10.040;2024-03-29T05:33:49;4.30;;;1.17;;
35679;SDS011;21803;53.586;10.040;2024-03-29T05:36:15;4.15;;;1.15;;
35679;SDS011;21803;53.586;10.040;2024-03-29T05:38:40;5.18;;;0.77;;
35679;SDS011;21803;53.586;10.040;2024-03-29T05:41:06;4.78;;;0.98;;
35679;SDS011;21803;53.586;10.040;2024-03-29T05:43:31;5.38;;;1.10;;
35679;SDS011;21803;53.586;10.040;2024-03-29T05:45:57;2.60;;;0.63;;
35679;SDS011;21803;53.586;10.040;2024-03-29T05:48:23;4.15;;;1.40;;
35679;SDS011;21803;53.586;10.040;2024-03-29T05:50:48;2.55;;;1.05;;
35679;SDS011;21803;53.586;10.040;2024-03-29T05:53:14;2.78;;;0.88;;
35679;SDS011;21803;53.586;10.040;2024-03-29T05:55:39;2.10;;;0.73;;
35679;SDS011;21803;53.586;10.040;2024-03-29T05:58:05;2.70;;;0.68;;
35679;SDS011;21803;53.586;10.040;2024-03-29T06:00:31;2.78;;;0.80;;
35679;SDS011;21803;53.586;10.040;2024-03-29T06:02:59;2.60;;;0.70;;
35679;SDS011;21803;53.586;10.040;2024-03-29T06:05:27;2.53;;;0.90;;
35679;SDS011;21803;53.586;10.040;2024-03-29T06:07:53;2.72;;;0.60;;
35679;SDS011;21803;53.586;10.040;2024-03-29T06:10:18;2.22;;;0.68;;
35679;SDS011;21803;53.586;10.040;2024-03-29T06:12:44;2.33;;;0.63;;
35679;SDS011;21803;53.586;10.040;2024-03-29T06:15:09;3.25;;;0.80;;
35679;SDS011;21803;53.586;10.040;2024-03-29T06:17:53;3.75;;;1.10;;
35679;SDS011;21803;53.586;10.040;2024-03-29T06:20:19;3.83;;;1.00;;
35679;SDS011;21803;53.586;10.040;2024-03-29T06:22:45;4.38;;;0.73;;
35679;SDS011;21803;53.586;10.040;2024-03-29T06:25:11;2.75;;;0.80;;
35679;SDS011;21803;53.586;10.040;2024-03-29T06:27:37;2.42;;;0.80;;
35679;SDS011;21803;53.586;10.040;2024-03-29T06:30:03;6.13;;;1.17;;
35679;SDS011;21803;53.586;10.040;2024-03-29T06:32:30;3.53;;;0.90;;
35679;SDS011;21803;53.586;10.040;2024-03-29T06:34:58;2.05;;;0.90;;
35679;SDS011;21803;53.586;10.040;2024-03-29T06:37:25;2.58;;;0.70;;
35679;SDS011;21803;53.586;10.040;2024-03-29T06:39:51;2.03;;;0.77;;
35679;SDS011;21803;53.586;10.040;2024-03-29T06:42:17;4.55;;;0.80;;
35679;SDS011;21803;53.586;10.040;2024-03-29T06:44:43;3.47;;;0.60;;
35679;SDS011;21803;53.586;10.040;2024-03-29T06:47:09;2.75;;;0.82;;
35679;SDS011;21803;53.586;10.040;2024-03-29T06:49:35;6.57;;;0.85;;
35679;SDS011;21803;53.586;10.040;2024-03-29T06:52:00;9.15;;;1.23;;
35679;SDS011;21803;53.586;10.040;2024-03-29T06:54:26;6.60;;;1.25;;
35679;SDS011;21803;53.586;10.040;2024-03-29T06:56:57;1.77;;;0.77;;
35679;SDS011;21803;53.586;10.040;2024-03-29T06:59:23;3.92;;;0.80;;
35679;SDS011;21803;53.586;10.040;2024-03-29T07:01:48;2.45;;;0.68;;
35679;SDS011;21803;53.586;10.040;2024-03-29T07:04:18;6.03;;;1.00;;
35679;SDS011;21803;53.586;10.040;2024-03-29T07:06:44;3.10;;;0.85;;
35679;SDS011;21803;53.586;10.040;2024-03-29T07:09:12;6.35;;;1.20;;
35679;SDS011;21803;53.586;10.040;2024-03-29T07:11:41;5.03;;;1.00;;
35679;SDS011;21803;53.586;10.040;2024-03-29T07:14:07;17.45;;;1.90;;
35679;SDS011;21803;53.586;10.040;2024-03-29T07:16:33;15.40;;;1.67;;
35679;SDS011;21803;53.586;10.040;2024-03-29T07:18:58;13.07;;;1.67;;
35679;SDS011;21803;53.586;10.040;2024-03-29T07:21:24;14.38;;;1.75;;
35679;SDS011;21803;53.586;10.040;2024-03-29T07:23:49;31.58;;;2.00;;
35679;SDS011;21803;53.586;10.040;2024-03-29T07:26:15;17.52;;;1.90;;
35679;SDS011;21803;53.586;10.040;2024-03-29T07:28:41;19.10;;;2.13;;
35679;SDS011;21803;53.586;10.040;2024-03-29T07:31:07;12.45;;;1.73;;
35679;SDS011;21803;53.586;10.040;2024-03-29T07:33:33;12.93;;;1.48;;
35679;SDS011;21803;53.586;10.040;2024-03-29T07:35:59;21.15;;;2.85;;
35679;SDS011;21803;53.586;10.040;2024-03-29T07:38:24;12.65;;;2.08;;
35679;SDS011;21803;53.586;10.040;2024-03-29T07:40:50;12.60;;;1.88;;
35679;SDS011;21803;53.586;10.040;2024-03-29T07:43:16;9.15;;;1.58;;
35679;SDS011;21803;53.586;10.040;2024-03-29T07:45:43;6.47;;;2.30;;
35679;SDS011;21803;53.586;10.040;2024-03-29T07:48:12;19.80;;;1.90;;
35679;SDS011;21803;53.586;10.040;2024-03-29T07:50:40;19.52;;;2.38;;
35679;SDS011;21803;53.586;10.040;2024-03-29T07:53:06;11.80;;;1.70;;
35679;SDS011;21803;53.586;10.040;2024-03-29T07:55:32;9.75;;;1.63;;
35679;SDS011;21803;53.586;10.040;2024-03-29T07:57:59;10.40;;;1.63;;
35679;SDS011;21803;53.586;10.040;2024-03-29T08:00:25;10.70;;;1.38;;
35679;SDS011;21803;53.586;10.040;2024-03-29T08:02:51;6.65;;;1.08;;
35679;SDS011;21803;53.586;10.040;2024-03-29T08:05:18;7.47;;;1.70;;
35679;SDS011;21803;53.586;10.040;2024-03-29T08:07:45;6.63;;;1.40;;
35679;SDS011;21803;53.586;10.040;2024-03-29T08:10:11;13.30;;;1.40;;
35679;SDS011;21803;53.586;10.040;2024-03-29T08:12:36;5.18;;;1.10;;
35679;SDS011;21803;53.586;10.040;2024-03-29T08:15:02;4.00;;;1.35;;
35679;SDS011;21803;53.586;10.040;2024-03-29T08:17:28;8.10;;;1.08;;
35679;SDS011;21803;53.586;10.040;2024-03-29T08:19:54;5.70;;;0.85;;
35679;SDS011;21803;53.586;10.040;2024-03-29T08:22:19;3.58;;;1.00;;
35679;SDS011;21803;53.586;10.040;2024-03-29T08:24:45;4.15;;;1.00;;
35679;SDS011;21803;53.586;10.040;2024-03-29T08:27:11;5.53;;;0.95;;
35679;SDS011;21803;53.586;10.040;2024-03-29T08:29:37;5.05;;;1.20;;
35679;SDS011;21803;53.586;10.040;2024-03-29T08:32:02;4.43;;;1.02;;
35679;SDS011;21803;53.586;10.040;2024-03-29T08:34:28;1.50;;;0.88;;
35679;SDS011;21803;53.586;10.040;2024-03-29T08:36:59;3.72;;;1.00;;
35679;SDS011;21803;53.586;10.040;2024-03-29T08:39:28;4.15;;;1.02;;
35679;SDS011;21803;53.586;10.040;2024-03-29T08:42:00;4.60;;;0.95;;
35679;SDS011;21803;53.586;10.040;2024-03-29T08:44:30;2.92;;;0.65;;
35679;SDS011;21803;53.586;10.040;2024-03-29T08:46:56;0.52;;;0.38;;
35679;SDS011;21803;53.586;10.040;2024-03-29T08:49:23;2.75;;;0.80;;
35679;SDS011;21803;53.586;10.040;2024-03-29T08:51:49;1.55;;;0.60;;
35679;SDS011;21803;53.586;10.040;2024-03-29T08:54:15;2.72;;;0.90;;
35679;SDS011;21803;53.586;10.040;2024-03-29T08:56:40;1.13;;;0.50;;
35679;SDS011;21803;53.586;10.040;2024-03-29T08:59:06;2.38;;;0.70;;
35679;SDS011;21803;53.586;10.040;2024-03-29T09:01:41;0.82;;;0.57;;
35679;SDS011;21803;53.586;10.040;2024-03-29T09:04:07;5.72;;;0.70;;
35679;SDS011;21803;53.586;10.040;2024-03-29T09:06:36;3.45;;;0.68;;
35679;SDS011;21803;53.586;10.040;2024-03-29T09:09:02;7.75;;;0.98;;
35679;SDS011;21803;53.586;10.040;2024-03-29T09:11:29;1.70;;;1.10;;
35679;SDS011;21803;53.586;10.040;2024-03-29T09:13:55;1.08;;;0.70;;
35679;SDS011;21803;53.586;10.040;2024-03-29T09:16:23;1.40;;;0.57;;
35679;SDS011;21803;53.586;10.040;2024-03-29T09:18:50;1.33;;;0.60;;
35679;SDS011;21803;53.586;10.040;2024-03-29T09:21:15;1.50;;;0.52;;
35679;SDS011;21803;53.586;10.040;2024-03-29T09:23:41;0.75;;;0.50;;
35679;SDS011;21803;53.586;10.040;2024-03-29T09:26:07;1.08;;;0.70;;
35679;SDS011;21803;53.586;10.040;2024-03-29T09:28:32;2.65;;;0.65;;
35679;SDS011;21803;53.586;10.040;2024-03-29T09:31:00;0.95;;;0.50;;
35679;SDS011;21803;53.586;10.040;2024-03-29T09:33:27;1.20;;;0.50;;
35679;SDS011;21803;53.586;10.040;2024-03-29T09:35:52;0.93;;;0.80;;
35679;SDS011;21803;53.586;10.040;2024-03-29T09:38:19;1.15;;;0.50;;
35679;SDS011;21803;53.586;10.040;2024-03-29T09:40:44;1.35;;;0.50;;
35679;SDS011;21803;53.586;10.040;2024-03-29T09:43:10;0.75;;;0.57;;
35679;SDS011;21803;53.586;10.040;2024-03-29T09:45:39;0.93;;;0.52;;
35679;SDS011;21803;53.586;10.040;2024-03-29T09:48:05;2.65;;;0.70;;
35679;SDS011;21803;53.586;10.040;2024-03-29T09:50:35;1.30;;;0.60;;
35679;SDS011;21803;53.586;10.040;2024-03-29T09:53:02;0.82;;;0.50;;
35679;SDS011;21803;53.586;10.040;2024-03-29T09:55:29;1.35;;;0.60;;
35679;SDS011;21803;53.586;10.040;2024-03-29T09:57:55;1.67;;;0.80;;
35679;SDS011;21803;53.586;10.040;2024-03-29T10:00:22;0.90;;;0.60;;
35679;SDS011;21803;53.586;10.040;2024-03-29T10:02:48;1.88;;;0.47;;
35679;SDS011;21803;53.586;10.040;2024-03-29T10:05:15;1.98;;;0.70;;
35679;SDS011;21803;53.586;10.040;2024-03-29T10:07:41;1.25;;;0.50;;
35679;SDS011;21803;53.586;10.040;2024-03-29T10:10:08;1.67;;;0.63;;
35679;SDS011;21803;53.586;10.040;2024-03-29T10:12:36;0.80;;;0.57;;
35679;SDS011;21803;53.586;10.040;2024-03-29T10:15:02;0.60;;;0.50;;
35679;SDS011;21803;53.586;10.040;2024-03-29T10:17:39;1.15;;;0.50;;
35679;SDS011;21803;53.586;10.040;2024-03-29T10:20:09;2.22;;;0.60;;
35679;SDS011;21803;53.586;10.040;2024-03-29T10:22:36;1.83;;;0.90;;
35679;SDS011;21803;53.586;10.040;2024-03-29T10:25:09;1.00;;;0.68;;
35679;SDS011;21803;53.586;10.040;2024-03-29T10:27:35;2.72;;;0.60;;
35679;SDS011;21803;53.586;10.040;2024-03-29T10:30:00;0.98;;;0.60;;
35679;SDS011;21803;53.586;10.040;2024-03-29T10:32:27;0.75;;;0.70;;
35679;SDS011;21803;53.586;10.040;2024-03-29T10:34:52;1.58;;;0.80;;
35679;SDS011;21803;53.586;10.040;2024-03-29T10:37:18;1.80;;;0.80;;
35679;SDS011;21803;53.586;10.040;2024-03-29T10:39:51;3.45;;;0.60;;
35679;SDS011;21803;53.586;10.040;2024-03-29T10:42:18;0.90;;;0.70;;
35679;SDS011;21803;53.586;10.040;2024-03-29T10:44:45;2.47;;;0.80;;
35679;SDS011;21803;53.586;10.040;2024-03-29T10:47:13;0.73;;;0.50;;
35679;SDS011;21803;53.586;10.040;2024-03-29T10:49:49;2.28;;;0.90;;
35679;SDS011;21803;53.586;10.040;2024-03-29T10:52:16;1.23;;;0.70;;
35679;SDS011;21803;53.586;10.040;2024-03-29T10:54:43;1.13;;;0.60;;
35679;SDS011;21803;53.586;10.040;2024-03-29T10:57:12;1.60;;;0.90;;
35679;SDS011;21803;53.586;10.040;2024-03-29T10:59:46;0.95;;;0.85;;
35679;SDS011;21803;53.586;10.040;2024-03-29T11:03:01;1.35;;;0.70;;
35679;SDS011;21803;53.586;10.040;2024-03-29T11:05:17;1.88;;;1.02;;
35679;SDS011;21803;53.586;10.040;2024-03-29T11:07:43;2.17;;;0.95;;
35679;SDS011;21803;53.586;10.040;2024-03-29T11:10:15;1.30;;;0.73;;
35679;SDS011;21803;53.586;10.040;2024-03-29T11:12:47;1.95;;;0.73;;
35679;SDS011;21803;53.586;10.040;2024-03-29T11:15:27;1.73;;;0.77;;
35679;SDS011;21803;53.586;10.040;2024-03-29T11:17:55;2.65;;;0.52;;
35679;SDS011;21803;53.586;10.040;2024-03-29T11:20:23;2.15;;;0.65;;
35679;SDS011;21803;53.586;10.040;2024-03-29T11:22:55;2.10;;;0.80;;
35679;SDS011;21803;53.586;10.040;2024-03-29T11:25:21;1.10;;;0.60;;
35679;SDS011;21803;53.586;10.040;2024-03-29T11:27:47;1.92;;;0.70;;
35679;SDS011;21803;53.586;10.040;2024-03-29T11:30:16;2.00;;;0.63;;
35679;SDS011;21803;53.586;10.040;2024-03-29T11:32:43;2.05;;;0.70;;
35679;SDS011;21803;53.586;10.040;2024-03-29T11:35:15;1.38;;;0.60;;
35679;SDS011;21803;53.586;10.040;2024-03-29T11:37:41;2.50;;;0.65;;
35679;SDS011;21803;53.586;10.040;2024-03-29T11:40:10;6.20;;;0.80;;
35679;SDS011;21803;53.586;10.040;2024-03-29T11:42:46;0.50;;;0.50;;
35679;SDS011;21803;53.586;10.040;2024-03-29T11:45:12;1.92;;;0.80;;
35679;SDS011;21803;53.586;10.040;2024-03-29T11:47:39;1.50;;;0.80;;
35679;SDS011;21803;53.586;10.040;2024-03-29T11:50:07;1.05;;;0.70;;
35679;SDS011;21803;53.586;10.040;2024-03-29T11:52:33;1.42;;;0.70;;
35679;SDS011;21803;53.586;10.040;2024-03-29T11:54:59;2.00;;;0.80;;
35679;SDS011;21803;53.586;10.040;2024-03-29T11:57:25;2.15;;;0.80;;
35679;SDS011;21803;53.586;10.040;2024-03-29T11:59:50;0.85;;;0.70;;
35679;SDS011;21803;53.586;10.040;2024-03-29T12:02:16;1.10;;;0.70;;
35679;SDS011;21803;53.586;10.040;2024-03-29T12:04:42;1.83;;;0.70;;
35679;SDS011;21803;53.586;10.040;2024-03-29T12:07:08;1.05;;;0.80;;
35679;SDS011;21803;53.586;10.040;2024-03-29T12:09:33;2.20;;;0.80;;
35679;SDS011;21803;53.586;10.040;2024-03-29T12:12:00;4.45;;;1.10;;
35679;SDS011;21803;53.586;10.040;2024-03-29T12:14:31;2.55;;;0.85;;
35679;SDS011;21803;53.586;10.040;2024-03-29T12:17:00;1.10;;;0.70;;
35679;SDS011;21803;53.586;10.040;2024-03-29T12:19:26;2.42;;;1.05;;
35679;SDS011;21803;53.586;10.040;2024-03-29T12:21:52;3.35;;;0.70;;
35679;SDS011;21803;53.586;10.040;2024-03-29T12:24:18;3.70;;;0.65;;
35679;SDS011;21803;53.586;10.040;2024-03-29T12:26:44;8.63;;;0.85;;
35679;SDS011;21803;53.586;10.040;2024-03-29T12:29:10;11.95;;;1.33;;
35679;SDS011;21803;53.586;10.040;2024-03-29T12:31:36;3.70;;;0.60;;
35679;SDS011;21803;53.586;10.040;2024-03-29T12:34:03;3.85;;;0.80;;
35679;SDS011;21803;53.586;10.040;2024-03-29T12:36:29;3.63;;;0.70;;
35679;SDS011;21803;53.586;10.040;2024-03-29T12:38:58;3.33;;;0.90;;
35679;SDS011;21803;53.586;10.040;2024-03-29T12:41:28;2.20;;;0.80;;
35679;SDS011;21803;53.586;10.040;2024-03-29T12:43:57;0.98;;;0.70;;
35679;SDS011;21803;53.586;10.040;2024-03-29T12:46:23;2.45;;;0.88;;
35679;SDS011;21803;53.586;10.040;2024-03-29T12:48:48;3.28;;;0.82;;
35679;SDS011;21803;53.586;10.040;2024-03-29T12:51:22;5.88;;;0.90;;
35679;SDS011;21803;53.586;10.040;2024-03-29T12:53:48;1.77;;;0.60;;
35679;SDS011;21803;53.586;10.040;2024-03-29T12:56:14;1.70;;;0.90;;
35679;SDS011;21803;53.586;10.040;2024-03-29T12:58:39;2.65;;;0.73;;
35679;SDS011;21803;53.586;10.040;2024-03-29T13:01:05;2.35;;;0.60;;
35679;SDS011;21803;53.586;10.040;2024-03-29T13:03:31;8.90;;;0.80;;
35679;SDS011;21803;53.586;10.040;2024-03-29T13:05:57;0.90;;;0.50;;
35679;SDS011;21803;53.586;10.040;2024-03-29T13:08:22;2.67;;;1.00;;
35679;SDS011;21803;53.586;10.040;2024-03-29T13:10:48;0.85;;;0.60;;
35679;SDS011;21803;53.586;10.040;2024-03-29T13:13:14;2.97;;;0.82;;
35679;SDS011;21803;53.586;10.040;2024-03-29T13:15:40;1.73;;;0.80;;
35679;SDS011;21803;53.586;10.040;2024-03-29T13:18:07;2.00;;;0.80;;
35679;SDS011;21803;53.586;10.040;2024-03-29T13:23:05;1.35;;;0.65;;
35679;SDS011;21803;53.586;10.040;2024-03-29T13:25:31;0.75;;;0.50;;
35679;SDS011;21803;53.586;10.040;2024-03-29T13:27:57;5.20;;;0.60;;
35679;SDS011;21803;53.586;10.040;2024-03-29T13:30:24;1.58;;;0.60;;
35679;SDS011;21803;53.586;10.040;2024-03-29T13:32:51;2.33;;;0.75;;
35679;SDS011;21803;53.586;10.040;2024-03-29T13:35:17;1.80;;;0.60;;
35679;SDS011;21803;53.586;10.040;2024-03-29T13:37:49;1.67;;;0.65;;
35679;SDS011;21803;53.586;10.040;2024-03-29T13:40:16;1.00;;;0.55;;
35679;SDS011;21803;53.586;10.040;2024-03-29T13:42:46;1.85;;;0.73;;
35679;SDS011;21803;53.586;10.040;2024-03-29T13:45:13;2.22;;;0.65;;
35679;SDS011;21803;53.586;10.040;2024-03-29T13:47:40;1.42;;;0.60;;
35679;SDS011;21803;53.586;10.040;2024-03-29T13:50:07;0.47;;;0.40;;
35679;SDS011;21803;53.586;10.040;2024-03-29T13:52:33;0.50;;;0.43;;
35679;SDS011;21803;53.586;10.040;2024-03-29T13:55:00;1.35;;;0.70;;
35679;SDS011;21803;53.586;10.040;2024-03-29T13:57:26;0.80;;;0.68;;
35679;SDS011;21803;53.586;10.040;2024-03-29T13:59:52;3.03;;;0.70;;
35679;SDS011;21803;53.586;10.040;2024-03-29T14:02:18;1.15;;;0.57;;
35679;SDS011;21803;53.586;10.040;2024-03-29T14:04:44;1.25;;;0.40;;
35679;SDS011;21803;53.586;10.040;2024-03-29T14:07:11;1.63;;;0.60;;
35679;SDS011;21803;53.586;10.040;2024-03-29T14:09:39;0.77;;;0.63;;
35679;SDS011;21803;53.586;10.040;2024-03-29T14:12:09;0.88;;;0.40;;
35679;SDS011;21803;53.586;10.040;2024-03-29T14:14:34;1.58;;;0.70;;
35679;SDS011;21803;53.586;10.040;2024-03-29T14:17:00;1.35;;;0.52;;
35679;SDS011;21803;53.586;10.040;2024-03-29T14:19:31;0.60;;;0.60;;
35679;SDS011;21803;53.586;10.040;2024-03-29T14:22:00;1.52;;;0.60;;
35679;SDS011;21803;53.586;10.040;2024-03-29T14:24:27;1.17;;;0.55;;
35679;SDS011;21803;53.586;10.040;2024-03-29T14:26:55;3.35;;;0.70;;
35679;SDS011;21803;53.586;10.040;2024-03-29T14:29:21;0.82;;;0.50;;
35679;SDS011;21803;53.586;10.040;2024-03-29T14:31:47;1.77;;;0.50;;
35679;SDS011;21803;53.586;10.040;2024-03-29T14:34:13;0.47;;;0.40;;